createdAt,value
2022-10-24T00:09:06.121Z,13.36
2022-10-24T00:13:59.744Z,13.34
2022-10-24T00:18:52.880Z,13.01
2022-10-24T00:23:46.362Z,12.83
2022-10-24T00:28:41.633Z,12.54
2022-10-24T00:33:35.143Z,13.00
2022-10-24T00:38:28.569Z,12.58
2022-10-24T00:43:24.458Z,12.71
2022-10-24T00:48:26.122Z,12.20
2022-10-24T00:53:20.837Z,11.58
2022-10-24T00:58:14.940Z,12.08
2022-10-24T01:03:08.197Z,12.00
2022-10-24T01:08:11.598Z,12.15
2022-10-24T01:13:18.488Z,12.14
2022-10-24T01:18:18.673Z,11.88
2022-10-24T01:23:29.617Z,11.75
2022-10-24T01:28:25.948Z,11.84
2022-10-24T01:33:28.882Z,11.96
2022-10-24T01:38:27.806Z,11.81
2022-10-24T01:43:25.990Z,11.65
2022-10-24T01:48:24.807Z,11.86
2022-10-24T01:53:20.015Z,11.80
2022-10-24T01:58:15.817Z,11.47
2022-10-24T02:03:24.566Z,11.15
2022-10-24T02:08:23.478Z,11.56
2022-10-24T02:13:24.759Z,11.52
2022-10-24T02:18:18.417Z,11.34
2022-10-24T02:23:21.516Z,11.52
2022-10-24T02:28:20.229Z,11.15
2022-10-24T02:33:14.454Z,11.61
2022-10-24T02:38:14.038Z,11.46
2022-10-24T02:43:08.418Z,11.25
2022-10-24T02:48:07.769Z,11.26
2022-10-24T02:53:00.972Z,11.46
2022-10-24T02:57:54.184Z,11.56
2022-10-24T03:02:47.648Z,11.23
2022-10-24T03:07:42.421Z,11.27
2022-10-24T03:12:35.708Z,11.37
2022-10-24T03:17:28.860Z,10.99
2022-10-24T03:22:21.967Z,11.18
2022-10-24T03:27:16.634Z,10.81
2022-10-24T03:32:09.881Z,10.84
2022-10-24T03:37:03.007Z,10.32
2022-10-24T03:41:56.181Z,10.64
2022-10-24T03:46:50.667Z,10.55
2022-10-24T03:51:43.901Z,10.52
2022-10-24T03:56:37.102Z,10.47
2022-10-24T04:01:30.312Z,10.42
2022-10-24T04:06:25.020Z,10.30
2022-10-24T04:11:18.267Z,10.55
2022-10-24T04:16:11.579Z,10.28
2022-10-24T04:21:05.062Z,10.15
2022-10-24T04:25:59.727Z,10.05
2022-10-24T04:30:56.667Z,10.14
2022-10-24T04:35:51.246Z,10.36
2022-10-24T04:40:47.245Z,10.08
2022-10-24T04:45:41.892Z,10.32
2022-10-24T04:50:35.091Z,10.26
2022-10-24T04:55:28.620Z,10.16
2022-10-24T05:00:21.972Z,9.80
2022-10-24T05:05:17.265Z,9.15
2022-10-24T05:10:12.044Z,9.83
2022-10-24T05:15:06.366Z,9.37
2022-10-24T05:19:59.588Z,10.09
2022-10-24T05:24:57.055Z,9.65
2022-10-24T05:29:50.161Z,10.12
2022-10-24T05:34:43.337Z,10.33
2022-10-24T05:39:36.686Z,10.37
2022-10-24T05:44:33.020Z,9.28
2022-10-24T05:49:26.338Z,10.10
2022-10-24T05:54:19.443Z,10.31
2022-10-24T05:59:12.680Z,10.72
2022-10-24T06:04:10.010Z,10.59
2022-10-24T06:09:06.236Z,10.51
2022-10-24T06:14:00.339Z,10.83
2022-10-24T06:18:53.537Z,10.51
2022-10-24T06:23:49.767Z,11.13
2022-10-24T06:28:43.450Z,11.44
2022-10-24T06:33:42.694Z,11.22
2022-10-24T06:38:38.997Z,11.76
2022-10-24T06:43:42.382Z,11.92
2022-10-24T06:48:36.239Z,12.02
2022-10-24T06:53:30.101Z,12.20
2022-10-24T06:58:23.393Z,12.55
2022-10-24T07:03:18.297Z,12.41
2022-10-24T07:08:12.260Z,12.77
2022-10-24T07:13:05.550Z,13.26
2022-10-24T07:17:58.721Z,13.52
2022-10-24T07:22:53.411Z,13.78
2022-10-24T07:27:46.683Z,13.98
2022-10-24T07:32:40.103Z,14.33
2022-10-24T07:37:33.295Z,14.43
2022-10-24T07:42:27.880Z,14.84
2022-10-24T07:47:20.970Z,14.87
2022-10-24T07:52:14.073Z,15.18
2022-10-24T07:57:07.261Z,15.21
2022-10-24T08:02:01.802Z,15.54
2022-10-24T08:06:54.926Z,15.64
2022-10-24T08:11:48.162Z,16.02
2022-10-24T08:16:42.724Z,15.95
2022-10-24T08:21:37.367Z,16.33
2022-10-24T08:26:30.586Z,16.43
2022-10-24T08:31:25.753Z,16.84
2022-10-24T08:36:23.301Z,17.14
2022-10-24T08:41:26.644Z,17.40
2022-10-24T08:46:40.440Z,17.65
2022-10-24T08:51:40.503Z,18.44
2022-10-24T08:56:35.133Z,19.24
2022-10-24T09:01:34.361Z,19.66
2022-10-24T09:06:30.041Z,20.40
2022-10-24T09:11:31.624Z,20.99
2022-10-24T09:16:29.197Z,21.16
2022-10-24T09:21:23.903Z,22.10
2022-10-24T09:26:19.743Z,22.06
2022-10-24T09:31:17.821Z,22.02
2022-10-24T09:36:14.900Z,22.00
2022-10-24T09:41:16.715Z,22.03
2022-10-24T09:46:12.415Z,22.07
2022-10-24T09:51:08.324Z,21.35
2022-10-24T09:56:09.963Z,21.93
2022-10-24T10:01:07.121Z,21.86
2022-10-24T10:06:04.683Z,21.89
2022-10-24T10:11:01.017Z,21.81
2022-10-24T10:15:58.087Z,21.57
2022-10-24T10:21:05.186Z,21.67
2022-10-24T10:26:20.527Z,21.45
2022-10-24T10:31:18.353Z,21.68
2022-10-24T10:36:23.811Z,21.54
2022-10-24T10:41:27.257Z,21.72
2022-10-24T10:46:32.683Z,21.14
2022-10-24T10:51:35.137Z,21.79
2022-10-24T10:56:36.017Z,21.82
2022-10-24T11:01:42.087Z,22.23
2022-10-24T11:06:45.388Z,22.26
2022-10-24T11:11:43.463Z,22.54
2022-10-24T11:16:41.233Z,22.51
2022-10-24T11:21:36.480Z,22.51
2022-10-24T11:26:33.813Z,22.77
2022-10-24T11:31:31.807Z,22.77
2022-10-24T11:36:33.818Z,22.61
2022-10-24T11:41:49.041Z,22.58
2022-10-24T11:46:48.239Z,22.47
2022-10-24T11:51:51.844Z,22.66
2022-10-24T11:56:49.904Z,22.65
2022-10-24T12:01:59.905Z,21.98
2022-10-24T12:07:04.537Z,22.62
2022-10-24T12:12:31.269Z,22.60
2022-10-24T12:17:52.090Z,22.59
2022-10-24T12:22:48.406Z,22.58
2022-10-24T12:27:43.230Z,22.63
2022-10-24T12:32:40.922Z,22.69
2022-10-24T12:37:36.698Z,22.81
2022-10-24T12:43:03.146Z,22.71
2022-10-24T12:48:30.182Z,22.85
2022-10-24T12:54:01.236Z,22.28
2022-10-24T12:59:00.043Z,22.86
2022-10-24T13:04:27.060Z,22.78
2022-10-24T13:09:31.460Z,22.81
2022-10-24T13:14:36.550Z,22.49
2022-10-24T13:19:32.558Z,22.39
2022-10-24T13:24:34.151Z,22.61
2022-10-24T13:30:03.194Z,22.57
2022-10-24T13:35:02.950Z,22.43
2022-10-24T13:39:57.705Z,22.36
2022-10-24T13:44:54.157Z,22.26
2022-10-24T13:49:55.747Z,22.26
2022-10-24T13:54:57.787Z,21.90
2022-10-24T13:59:56.565Z,22.06
2022-10-24T14:04:54.832Z,22.12
2022-10-24T14:09:58.265Z,21.91
2022-10-24T14:14:53.366Z,21.95
2022-10-24T14:19:54.352Z,21.86
2022-10-24T14:24:49.447Z,21.65
2022-10-24T14:29:53.558Z,21.82
2022-10-24T14:34:49.680Z,21.24
2022-10-24T14:39:43.449Z,21.63
2022-10-24T14:44:38.521Z,21.49
2022-10-24T14:49:36.838Z,21.05
2022-10-24T14:54:33.472Z,21.14
2022-10-24T14:59:30.149Z,20.95
2022-10-24T15:04:31.932Z,21.04
2022-10-24T15:09:26.730Z,20.31
2022-10-24T15:14:40.192Z,20.79
2022-10-24T15:19:38.930Z,20.06
2022-10-24T15:24:40.816Z,19.91
2022-10-24T15:29:37.392Z,19.72
2022-10-24T15:34:32.924Z,19.64
2022-10-24T15:39:27.781Z,19.52
2022-10-24T15:44:25.634Z,19.50
2022-10-24T15:49:21.542Z,19.48
2022-10-24T15:54:16.361Z,19.35
2022-10-24T15:59:09.756Z,19.47
2022-10-24T16:04:05.870Z,19.16
2022-10-24T16:08:59.175Z,19.28
2022-10-24T16:13:52.479Z,19.22
2022-10-24T16:18:45.926Z,19.20
2022-10-24T16:23:43.720Z,18.98
2022-10-24T16:28:36.884Z,18.90
2022-10-24T16:33:30.122Z,19.36
2022-10-24T16:38:23.320Z,18.85
2022-10-24T16:43:21.428Z,19.36
2022-10-24T16:48:15.205Z,19.23
2022-10-24T16:53:09.036Z,19.50
2022-10-24T16:58:02.370Z,19.23
2022-10-24T17:02:58.298Z,19.41
2022-10-24T17:07:51.663Z,19.25
2022-10-24T17:12:47.034Z,18.74
2022-10-24T17:17:40.328Z,18.69
2022-10-24T17:22:35.397Z,18.52
2022-10-24T17:27:28.773Z,18.31
2022-10-24T17:32:22.121Z,18.23
2022-10-24T17:37:20.712Z,18.16
2022-10-24T17:42:15.731Z,18.16
2022-10-24T17:47:09.438Z,17.94
2022-10-24T17:52:02.847Z,17.77
2022-10-24T17:56:56.066Z,17.40
2022-10-24T18:01:51.390Z,16.91
2022-10-24T18:06:44.708Z,17.64
2022-10-24T18:11:38.999Z,17.45
2022-10-24T18:16:34.367Z,17.31
2022-10-24T18:21:29.013Z,17.14
2022-10-24T18:26:24.338Z,17.30
2022-10-24T18:31:19.705Z,17.22
2022-10-24T18:36:14.640Z,17.14
2022-10-24T18:41:30.011Z,17.37
2022-10-24T18:46:23.586Z,17.13
2022-10-24T18:51:26.707Z,17.33
2022-10-24T18:56:21.870Z,17.18
2022-10-24T19:01:25.829Z,17.10
2022-10-24T19:06:22.925Z,17.00
2022-10-24T19:11:26.580Z,16.92
2022-10-24T19:16:28.596Z,16.13
2022-10-24T19:21:26.281Z,16.69
2022-10-24T19:26:19.652Z,16.36
2022-10-24T19:31:15.095Z,16.50
2022-10-24T19:36:14.340Z,15.71
2022-10-24T19:41:11.747Z,16.32
2022-10-24T19:46:18.750Z,16.27
2022-10-24T19:51:14.411Z,16.04
2022-10-24T19:56:09.230Z,15.88
2022-10-24T20:01:06.645Z,16.07
2022-10-24T20:06:00.449Z,15.85
2022-10-24T20:10:57.619Z,16.01
2022-10-24T20:15:54.989Z,15.90
2022-10-24T20:20:48.199Z,15.42
2022-10-24T20:25:41.352Z,16.00
2022-10-24T20:30:41.948Z,15.16
2022-10-24T20:35:35.248Z,15.91
2022-10-24T20:40:29.242Z,15.86
2022-10-24T20:45:25.195Z,15.77
2022-10-24T20:50:19.837Z,15.55
2022-10-24T20:55:25.328Z,15.90
2022-10-24T21:00:29.062Z,15.88
2022-10-24T21:05:25.369Z,15.72
2022-10-24T21:10:19.063Z,15.63
2022-10-24T21:15:15.501Z,15.44
2022-10-24T21:20:09.163Z,15.23
2022-10-24T21:25:03.609Z,15.58
2022-10-24T21:29:56.736Z,15.44
2022-10-24T21:34:49.854Z,15.45
2022-10-24T21:39:45.021Z,15.42
2022-10-24T21:44:39.477Z,15.36
2022-10-24T21:49:32.604Z,15.05
2022-10-24T21:54:26.853Z,15.30
2022-10-24T21:59:21.600Z,15.06
2022-10-24T22:04:17.828Z,14.87
2022-10-24T22:09:16.051Z,15.22
2022-10-24T22:14:09.370Z,15.21
2022-10-24T22:19:05.478Z,15.16
2022-10-24T22:24:01.924Z,14.94
2022-10-24T22:28:56.884Z,15.16
2022-10-24T22:33:50.682Z,14.85
2022-10-24T22:38:44.149Z,14.89
2022-10-24T22:43:39.261Z,15.17
2022-10-24T22:48:38.203Z,15.16
2022-10-24T22:53:33.939Z,15.17
2022-10-24T22:58:27.651Z,14.79
2022-10-24T23:03:33.283Z,15.06
2022-10-24T23:08:33.093Z,14.99
2022-10-24T23:13:26.936Z,14.50
2022-10-24T23:18:20.633Z,14.57
2022-10-24T23:23:28.732Z,14.58
2022-10-24T23:28:28.683Z,14.55
2022-10-24T23:33:27.068Z,14.11
2022-10-24T23:38:22.236Z,14.17
2022-10-24T23:43:17.689Z,14.06
2022-10-24T23:48:22.780Z,14.00
2022-10-24T23:53:33.141Z,14.11
2022-10-24T23:58:26.496Z,14.00
